Time;durP1;ratioP1;P1;durP2;ratioP2;P2;SDS_P1;SDS_P2;PMS_P1;PMS_P2;Temp;Humidity;BMP_temperature;BMP_pressure;BME280_temperature;BME280_humidity;BME280_pressure;Samples;Min_cycle;Max_cycle;Signal;HPM_P1;HPM_P2
2019/06/03 00:00:42;;;;;;;6.1;4.1;;;;;;;19.07;67.1377;960.4177;;;;
2019/06/03 00:03:19;;;;;;;5.3;3.8;;;;;;;19.04;67.60156;960.4395;;;;
2019/06/03 00:05:50;;;;;;;4.7;4;;;;;;;19.01;66.13086;960.3945;;;;
2019/06/03 00:08:28;;;;;;;6.3;3.7;;;;;;;18.91;67.50098;960.3586;;;;
2019/06/03 00:11:06;;;;;;;4.3;3.6;;;;;;;18.89;67.68555;960.3017;;;;
2019/06/03 00:13:33;;;;;;;3.8;3.4;;;;;;;18.89;67.27344;960.2755;;;;
2019/06/03 00:16:19;;;;;;;5.3;4.1;;;;;;;18.84;67.54785;960.2684;;;;
2019/06/03 00:18:47;;;;;;;4.7;4;;;;;;;18.75;68.56543;960.2464;;;;
2019/06/03 00:21:12;;;;;;;4.3;3.4;;;;;;;18.66;68.31934;960.2058;;;;
2019/06/03 00:23:48;;;;;;;4.7;3.7;;;;;;;18.62;68.20703;960.1436;;;;
2019/06/03 00:26:23;;;;;;;5.6;3.4;;;;;;;18.62;68.27734;960.2205;;;;
2019/06/03 00:28:48;;;;;;;5.3;3.6;;;;;;;18.62;67.79492;960.1933;;;;
2019/06/03 00:31:13;;;;;;;5.5;4.5;;;;;;;18.6;67.96973;960.2238;;;;
2019/06/03 00:33:38;;;;;;;4.4;3.9;;;;;;;18.63;68.80664;960.1897;;;;
2019/06/03 00:36:15;;;;;;;4.2;3.7;;;;;;;18.67;69.31641;960.1951;;;;
2019/06/03 00:38:42;;;;;;;4.3;3.8;;;;;;;18.66;69.59766;960.2397;;;;
2019/06/03 00:41:07;;;;;;;4.7;4;;;;;;;18.6;68.79004;960.1692;;;;
2019/06/03 00:43:32;;;;;;;4.4;3.6;;;;;;;18.6;69.21094;960.2057;;;;
2019/06/03 00:45:58;;;;;;;5.4;3.5;;;;;;;18.58;69.0791;960.188;;;;
2019/06/03 00:48:23;;;;;;;4.7;4.1;;;;;;;18.58;69.40723;960.2086;;;;
2019/06/03 00:50:50;;;;;;;5;4.1;;;;;;;18.54;68.58008;960.2304;;;;
2019/06/03 00:53:16;;;;;;;5.6;4.2;;;;;;;18.48;69.6377;960.2004;;;;
2019/06/03 00:55:44;;;;;;;5.9;4.5;;;;;;;18.37;69.5625;960.1935;;;;
2019/06/03 00:58:09;;;;;;;4.7;4;;;;;;;18.33;69.60352;960.1739;;;;
2019/06/03 01:00:34;;;;;;;4.8;4.1;;;;;;;18.35;69.58301;960.1408;;;;
2019/06/03 01:02:59;;;;;;;5.2;4.7;;;;;;;18.27;70.42578;960.1136;;;;
2019/06/03 01:05:25;;;;;;;6.1;4.9;;;;;;;18.22;71.0957;960.1042;;;;
2019/06/03 01:07:50;;;;;;;5.9;4.2;;;;;;;18.22;69.46777;960.0671;;;;
2019/06/03 01:10:15;;;;;;;5.5;4.5;;;;;;;18.25;69.08594;960.0577;;;;
2019/06/03 01:12:40;;;;;;;5.2;4.7;;;;;;;18.23;69.7627;960.0374;;;;
2019/06/03 01:15:05;;;;;;;5.1;4.6;;;;;;;18.21;69.9248;960.034;;;;
2019/06/03 01:17:45;;;;;;;5.8;4.5;;;;;;;18.16;69.35449;960.0676;;;;
2019/06/03 01:20:10;;;;;;;6.2;4.5;;;;;;;18.18;70.44434;960.0386;;;;
2019/06/03 01:22:35;;;;;;;5.8;4.4;;;;;;;18.13;70.53125;960.0598;;;;
2019/06/03 01:25:00;;;;;;;5.5;4.4;;;;;;;18.08;69.86719;960.0511;;;;
2019/06/03 01:27:25;;;;;;;8.6;5.4;;;;;;;18.03;70.62109;960.0391;;;;
2019/06/03 01:29:52;;;;;;;8.4;5.5;;;;;;;17.98;70.75391;960.015;;;;
2019/06/03 01:32:30;;;;;;;12.7;6;;;;;;;17.96;71.18262;960.0101;;;;
2019/06/03 01:35:15;;;;;;;11.3;5.8;;;;;;;17.93;71.42285;959.9783;;;;
2019/06/03 01:37:53;;;;;;;10.1;6;;;;;;;17.82;72.19141;960.0047;;;;
2019/06/03 01:40:31;;;;;;;10.4;6.2;;;;;;;17.73;72.40918;960.0323;;;;
2019/06/03 01:43:09;;;;;;;8.6;6.4;;;;;;;17.62;73.24512;960.0137;;;;
2019/06/03 01:45:34;;;;;;;7.1;5.6;;;;;;;17.64;72.51074;959.9846;;;;
2019/06/03 01:48:00;;;;;;;7.3;5.8;;;;;;;17.64;72.3125;959.9408;;;;
2019/06/03 01:50:46;;;;;;;6.3;5.7;;;;;;;17.5;72.82813;959.9214;;;;
2019/06/03 01:53:12;;;;;;;6.9;5.6;;;;;;;17.56;72.87207;959.8831;;;;
2019/06/03 01:55:37;;;;;;;7.2;5.5;;;;;;;17.53;72.97266;959.8643;;;;
2019/06/03 01:58:02;;;;;;;6.5;5.6;;;;;;;17.47;73.12598;959.8961;;;;
2019/06/03 02:00:27;;;;;;;6.3;5.7;;;;;;;17.36;73.37695;959.8408;;;;
2019/06/03 02:02:52;;;;;;;7.4;5.1;;;;;;;17.32;72.86719;959.8568;;;;
2019/06/03 02:05:17;;;;;;;7.3;5.6;;;;;;;17.2;73.32715;959.8162;;;;
2019/06/03 02:07:42;;;;;;;6.1;5.3;;;;;;;17.19;73.37305;959.8599;;;;
2019/06/03 02:10:07;;;;;;;6.7;6;;;;;;;17.15;73.67969;959.815;;;;
2019/06/03 02:12:33;;;;;;;6.2;5.6;;;;;;;17.16;73.32031;959.8074;;;;
2019/06/03 02:14:58;;;;;;;6.4;5.6;;;;;;;17.21;73.90039;959.7742;;;;
2019/06/03 02:17:26;;;;;;;6.5;5.5;;;;;;;17.23;73.04102;959.817;;;;
2019/06/03 02:19:52;;;;;;;5.7;5;;;;;;;17.16;73.07422;959.8223;;;;
2019/06/03 02:22:23;;;;;;;6;5.5;;;;;;;17.08;73.54102;959.8484;;;;
2019/06/03 02:24:50;;;;;;;7.1;6;;;;;;;16.84;74.5166;959.8077;;;;
2019/06/03 02:27:20;;;;;;;7;6;;;;;;;16.8;74.58984;959.8276;;;;
2019/06/03 02:29:45;;;;;;;9.1;6.1;;;;;;;16.88;74.61719;959.8098;;;;
2019/06/03 02:32:10;;;;;;;6.4;5.7;;;;;;;16.87;75.01074;959.7942;;;;
2019/06/03 02:34:35;;;;;;;6.6;5.9;;;;;;;16.93;74.5332;959.8386;;;;
2019/06/03 02:37:00;;;;;;;6.3;5.7;;;;;;;16.92;74.00391;959.827;;;;
2019/06/03 02:39:25;;;;;;;6.4;5.5;;;;;;;16.9;74.51367;959.8599;;;;
2019/06/03 02:41:50;;;;;;;5.9;5.3;;;;;;;16.9;75.13379;959.842;;;;
2019/06/03 02:44:19;;;;;;;6.2;5.6;;;;;;;16.87;74.68555;959.8281;;;;
2019/06/03 02:46:49;;;;;;;6.8;5.8;;;;;;;16.82;74.875;959.8588;;;;
2019/06/03 02:49:17;;;;;;;7.7;5.9;;;;;;;16.8;74.75391;959.8655;;;;
2019/06/03 02:51:42;;;;;;;8.3;5.9;;;;;;;16.74;75.50293;959.8793;;;;
2019/06/03 02:54:21;;;;;;;6.6;6;;;;;;;16.68;75.35449;959.8524;;;;
2019/06/03 02:56:57;;;;;;;7.6;5.9;;;;;;;16.65;75.7793;959.8674;;;;
2019/06/03 02:59:38;;;;;;;8;5.9;;;;;;;16.64;74.9375;959.8567;;;;
2019/06/03 03:02:04;;;;;;;6.9;6.2;;;;;;;16.61;75.81836;959.8544;;;;
2019/06/03 03:04:42;;;;;;;6.8;6;;;;;;;16.6;75.99414;959.8439;;;;
2019/06/03 03:07:09;;;;;;;6.6;5.9;;;;;;;16.58;76.02441;959.8572;;;;
2019/06/03 03:09:34;;;;;;;6.5;5.8;;;;;;;16.56;76.55664;959.8464;;;;
2019/06/03 03:11:59;;;;;;;8.7;6.8;;;;;;;16.62;74.6543;959.8502;;;;
2019/06/03 03:14:24;;;;;;;7.9;6.5;;;;;;;16.68;74.08203;959.8747;;;;
2019/06/03 03:16:49;;;;;;;7.3;6.5;;;;;;;16.62;75.79688;959.8692;;;;
2019/06/03 03:19:14;;;;;;;9.6;6.3;;;;;;;16.72;74.19141;959.8465;;;;
2019/06/03 03:21:39;;;;;;;7.1;6.4;;;;;;;16.67;75.32813;959.8353;;;;
2019/06/03 03:24:05;;;;;;;8.2;6.3;;;;;;;16.64;75.22852;959.8627;;;;
2019/06/03 03:26:47;;;;;;;7.1;6.2;;;;;;;16.65;75.11426;959.8723;;;;
2019/06/03 03:29:14;;;;;;;7.6;6;;;;;;;16.55;75.62305;959.9025;;;;
2019/06/03 03:31:39;;;;;;;6.8;5.9;;;;;;;16.58;75.7207;959.9205;;;;
2019/06/03 03:34:17;;;;;;;6.5;5.7;;;;;;;16.53;75.71289;959.955;;;;
2019/06/03 03:36:50;;;;;;;7;5.7;;;;;;;16.48;76.06543;959.9735;;;;
2019/06/03 03:39:16;;;;;;;6.7;5.7;;;;;;;16.46;75.80566;959.9694;;;;
2019/06/03 03:41:42;;;;;;;7.2;5.9;;;;;;;16.48;75.10742;959.9568;;;;
2019/06/03 03:44:07;;;;;;;7.5;6;;;;;;;16.49;75.95215;959.9866;;;;
2019/06/03 03:46:41;;;;;;;7.4;6.7;;;;;;;16.46;75.74707;959.9981;;;;
2019/06/03 03:49:07;;;;;;;9.1;6.6;;;;;;;16.42;75.6123;960.0715;;;;
2019/06/03 03:51:32;;;;;;;7.5;6.7;;;;;;;16.47;76.16895;960.063;;;;
2019/06/03 03:53:57;;;;;;;8.8;6.4;;;;;;;16.34;76.41504;960.0167;;;;
2019/06/03 03:56:22;;;;;;;8.2;6.5;;;;;;;16.36;76.26563;960.0345;;;;
2019/06/03 03:58:49;;;;;;;10.1;7.4;;;;;;;16.3;76.26758;960.0108;;;;
2019/06/03 04:02:27;;;;;;;9.5;7;;;;;;;16.29;76.53418;960.0183;;;;
2019/06/03 04:04:52;;;;;;;6.9;6.2;;;;;;;16.42;75.21484;960.0352;;;;
2019/06/03 04:07:17;;;;;;;7.4;6;;;;;;;16.4;75.75977;959.9508;;;;
2019/06/03 04:09:42;;;;;;;8.7;6.6;;;;;;;16.39;76.21484;959.9548;;;;
2019/06/03 04:12:07;;;;;;;10.5;6.6;;;;;;;16.31;75.55762;960.0011;;;;
2019/06/03 04:14:32;;;;;;;9.3;7;;;;;;;16.38;75.34863;959.9975;;;;
2019/06/03 04:16:58;;;;;;;8.6;7.1;;;;;;;16.41;74.83984;959.9843;;;;
2019/06/03 04:19:24;;;;;;;9.8;7.1;;;;;;;16.46;74.94238;959.9998;;;;
2019/06/03 04:21:49;;;;;;;8.9;6.9;;;;;;;16.4;76.21484;959.9893;;;;
2019/06/03 04:24:14;;;;;;;7;6.3;;;;;;;16.52;74.78809;960.0186;;;;
2019/06/03 04:26:39;;;;;;;8.7;6.4;;;;;;;16.49;74.56055;960.0845;;;;
2019/06/03 04:29:29;;;;;;;9.7;6.9;;;;;;;16.44;75.47461;960.1092;;;;
2019/06/03 04:31:54;;;;;;;8.8;6.6;;;;;;;16.47;75.63184;960.1528;;;;
2019/06/03 04:34:40;;;;;;;7.6;6.7;;;;;;;16.49;75.80859;960.1635;;;;
2019/06/03 04:37:05;;;;;;;11.2;6.4;;;;;;;16.49;76.06641;960.1791;;;;
2019/06/03 04:39:30;;;;;;;7.6;6.6;;;;;;;16.52;76.05957;960.1592;;;;
2019/06/03 04:42:04;;;;;;;10.2;6.7;;;;;;;16.34;76.1123;960.1639;;;;
2019/06/03 04:44:42;;;;;;;8.9;6.2;;;;;;;16.51;75.69629;960.2079;;;;
2019/06/03 04:47:20;;;;;;;8.6;6.6;;;;;;;16.55;75.02734;960.22;;;;
2019/06/03 04:49:45;;;;;;;11;7.3;;;;;;;16.57;75.96387;960.1959;;;;
2019/06/03 04:52:10;;;;;;;9.2;7.1;;;;;;;16.63;74.51465;960.1949;;;;
2019/06/03 04:54:36;;;;;;;10.1;7.3;;;;;;;16.73;74.47461;960.1799;;;;
2019/06/03 04:57:01;;;;;;;9.1;6.3;;;;;;;16.81;74.31348;960.2399;;;;
2019/06/03 04:59:26;;;;;;;9;6.5;;;;;;;16.85;74.18945;960.2308;;;;
2019/06/03 05:01:55;;;;;;;7.7;6.8;;;;;;;16.92;73.72363;960.2271;;;;
2019/06/03 05:04:33;;;;;;;12.3;6.6;;;;;;;17.05;72.54199;960.2371;;;;
2019/06/03 05:07:05;;;;;;;11;7.1;;;;;;;17;72.13574;960.2737;;;;
2019/06/03 05:09:42;;;;;;;7.7;6;;;;;;;16.97;72.76367;960.2689;;;;
2019/06/03 05:12:07;;;;;;;8.7;6.7;;;;;;;16.89;73.00684;960.2897;;;;
2019/06/03 05:14:32;;;;;;;8.8;6.2;;;;;;;17;72.55664;960.3017;;;;
2019/06/03 05:16:57;;;;;;;9.2;6.5;;;;;;;16.92;72.52148;960.3455;;;;
2019/06/03 05:19:22;;;;;;;8.8;6.3;;;;;;;17.05;72.89258;960.372;;;;
2019/06/03 05:21:47;;;;;;;10.2;5.8;;;;;;;17.03;72.9248;960.3311;;;;
2019/06/03 05:24:12;;;;;;;8.8;5.9;;;;;;;17.18;72.64551;960.2341;;;;
2019/06/03 05:27:00;;;;;;;6.1;5.5;;;;;;;17.26;72.36719;960.2697;;;;
2019/06/03 05:29:38;;;;;;;6.7;5;;;;;;;17.36;71.77539;960.2957;;;;
2019/06/03 05:32:03;;;;;;;6.8;5.7;;;;;;;17.38;71.88379;960.2804;;;;
2019/06/03 05:34:28;;;;;;;5.8;5.2;;;;;;;17.36;72.1377;960.284;;;;
2019/06/03 05:36:53;;;;;;;5.7;5.1;;;;;;;17.33;73.00977;960.2776;;;;
2019/06/03 05:39:18;;;;;;;8;5.3;;;;;;;17.3;73.27344;960.3108;;;;
2019/06/03 05:41:43;;;;;;;6.7;5.1;;;;;;;17.55;72.00488;960.3535;;;;
2019/06/03 05:44:08;;;;;;;5.7;4.9;;;;;;;17.72;71.13184;960.3525;;;;
2019/06/03 05:46:36;;;;;;;6.9;5;;;;;;;17.8;71.19238;960.3552;;;;
2019/06/03 05:49:14;;;;;;;5.9;4.9;;;;;;;17.92;70.83594;960.3386;;;;
2019/06/03 05:51:52;;;;;;;5.5;4.8;;;;;;;17.94;70.85059;960.3508;;;;
2019/06/03 05:54:17;;;;;;;7.8;4.8;;;;;;;18.09;70.5957;960.3758;;;;
2019/06/03 05:56:42;;;;;;;4.8;4.2;;;;;;;18.21;69.72559;960.3475;;;;
2019/06/03 05:59:07;;;;;;;6.6;4.4;;;;;;;18.4;67.5625;960.3558;;;;
2019/06/03 06:01:37;;;;;;;6.5;4.4;;;;;;;18.5;68.24707;960.3406;;;;
2019/06/03 06:04:15;;;;;;;9;4.9;;;;;;;18.55;68.67676;960.3278;;;;
2019/06/03 06:06:44;;;;;;;5.9;4.5;;;;;;;18.66;67.06445;960.2726;;;;
2019/06/03 06:09:11;;;;;;;6.2;4.1;;;;;;;18.73;67.74316;960.2789;;;;
2019/06/03 06:11:45;;;;;;;6.5;4.6;;;;;;;18.86;67.12891;960.2849;;;;
2019/06/03 06:14:23;;;;;;;7.8;4.8;;;;;;;19.06;63.69824;960.2542;;;;
2019/06/03 06:17:01;;;;;;;7.3;4.8;;;;;;;19.34;60.93164;960.2834;;;;
2019/06/03 06:19:26;;;;;;;6.4;4.5;;;;;;;19.33;61.78809;960.2921;;;;
2019/06/03 06:21:51;;;;;;;9.9;4.4;;;;;;;19.41;61.42285;960.2832;;;;
2019/06/03 06:24:32;;;;;;;6.9;4.6;;;;;;;19.53;60.55859;960.2723;;;;
2019/06/03 06:26:57;;;;;;;8.7;4.4;;;;;;;19.67;59.9541;960.327;;;;
2019/06/03 06:29:22;;;;;;;9.7;4.3;;;;;;;19.7;60.95801;960.3497;;;;
2019/06/03 06:31:47;;;;;;;8.5;4.3;;;;;;;19.88;58.57227;960.3551;;;;
2019/06/03 06:34:12;;;;;;;4.9;3.6;;;;;;;19.97;58.25488;960.3469;;;;
2019/06/03 06:36:37;;;;;;;7.1;3.9;;;;;;;20;58.1875;960.3407;;;;
2019/06/03 06:39:05;;;;;;;7.5;3.6;;;;;;;20.3;57.51172;960.4023;;;;
2019/06/03 06:41:45;;;;;;;6.2;3.8;;;;;;;20.26;58.35156;960.4;;;;
2019/06/03 06:44:23;;;;;;;5.5;3.9;;;;;;;20.47;57.37793;960.47;;;;
2019/06/03 06:46:48;;;;;;;3.8;3.1;;;;;;;20.48;57.5332;960.4506;;;;
2019/06/03 06:49:26;;;;;;;6.1;3.7;;;;;;;20.58;57.91211;960.4814;;;;
2019/06/03 06:52:04;;;;;;;10.4;3.7;;;;;;;20.77;56.46484;960.4713;;;;
2019/06/03 06:54:29;;;;;;;4.4;3.1;;;;;;;20.76;56.42676;960.4381;;;;
2019/06/03 06:56:54;;;;;;;4.8;3.3;;;;;;;20.8;56.60938;960.4108;;;;
2019/06/03 06:59:20;;;;;;;4.1;2.9;;;;;;;20.86;56.68848;960.403;;;;
2019/06/03 07:01:45;;;;;;;3.4;2.9;;;;;;;20.89;57.13965;960.4316;;;;
2019/06/03 07:04:10;;;;;;;3.9;2.9;;;;;;;21.03;54.37598;960.4436;;;;
2019/06/03 07:06:49;;;;;;;3.9;2.8;;;;;;;21.05;54.37793;960.4994;;;;
2019/06/03 07:09:27;;;;;;;3.7;2.7;;;;;;;20.97;55.07617;960.4216;;;;
2019/06/03 07:12:05;;;;;;;3.4;2.9;;;;;;;21;55.70313;960.4581;;;;
2019/06/03 07:14:30;;;;;;;5.3;3.2;;;;;;;21.06;55.44043;960.4694;;;;
2019/06/03 07:16:55;;;;;;;3.7;2.8;;;;;;;21.18;54.72363;960.4721;;;;
2019/06/03 07:19:21;;;;;;;5.8;3.2;;;;;;;21.35;55.08691;960.4731;;;;
2019/06/03 07:21:46;;;;;;;7.1;2.7;;;;;;;21.51;53.4668;960.4702;;;;
2019/06/03 07:24:12;;;;;;;4.9;2.8;;;;;;;21.4;53.39453;960.5273;;;;
2019/06/03 07:26:37;;;;;;;3;2.4;;;;;;;21.73;53.16309;960.4982;;;;
2019/06/03 07:29:16;;;;;;;7.4;2.9;;;;;;;21.72;53.24316;960.4928;;;;
2019/06/03 07:31:48;;;;;;;4.9;2.6;;;;;;;21.72;53.68164;960.5308;;;;
2019/06/03 07:34:13;;;;;;;4.6;2.7;;;;;;;21.75;54.25098;960.4963;;;;
2019/06/03 07:36:38;;;;;;;8.7;2.9;;;;;;;21.78;53.38184;960.4356;;;;
2019/06/03 07:39:04;;;;;;;3.8;2.6;;;;;;;21.85;54.52344;960.3867;;;;
2019/06/03 07:41:29;;;;;;;4.7;2.8;;;;;;;21.95;54.09863;960.3709;;;;
2019/06/03 07:43:56;;;;;;;4.2;2.7;;;;;;;22.35;51.13281;960.3347;;;;
2019/06/03 07:46:21;;;;;;;4.2;2.5;;;;;;;22.38;50.81738;960.3348;;;;
2019/06/03 07:48:46;;;;;;;3.9;2.4;;;;;;;22.26;51.52441;960.313;;;;
2019/06/03 07:51:12;;;;;;;3.8;2.3;;;;;;;22.45;49.77246;960.3022;;;;
2019/06/03 07:53:38;;;;;;;3.3;2.3;;;;;;;22.29;51.05469;960.2808;;;;
2019/06/03 07:56:03;;;;;;;5.6;2.5;;;;;;;22.36;50.82617;960.298;;;;
2019/06/03 07:58:28;;;;;;;3.6;2.4;;;;;;;22.4;50.53516;960.2503;;;;
2019/06/03 08:00:53;;;;;;;6;2.3;;;;;;;22.45;50.26855;960.2656;;;;
2019/06/03 08:03:35;;;;;;;3.2;2.3;;;;;;;22.49;51.57422;960.278;;;;
2019/06/03 08:06:19;;;;;;;4.1;2.5;;;;;;;22.83;50.19336;960.2729;;;;
2019/06/03 08:08:49;;;;;;;4.5;2.4;;;;;;;22.79;50.37891;960.2863;;;;
2019/06/03 08:11:15;;;;;;;3.8;2.8;;;;;;;22.84;50.66895;960.2731;;;;
2019/06/03 08:13:40;;;;;;;3.3;2.3;;;;;;;22.91;51.00781;960.2771;;;;
2019/06/03 08:16:05;;;;;;;4.5;2.4;;;;;;;23.11;48.96973;960.2592;;;;
2019/06/03 08:18:30;;;;;;;4.1;2.5;;;;;;;23.13;47.7168;960.2006;;;;
2019/06/03 08:20:55;;;;;;;6.7;2.3;;;;;;;23.2;48.28125;960.2175;;;;
2019/06/03 08:23:41;;;;;;;4.6;2.8;;;;;;;23.24;48.13086;960.2054;;;;
2019/06/03 08:26:19;;;;;;;3.8;2.6;;;;;;;23.29;47.22461;960.2681;;;;
2019/06/03 08:28:57;;;;;;;3.4;2.2;;;;;;;23.3;48.69434;960.2229;;;;
2019/06/03 08:31:22;;;;;;;3.7;2.4;;;;;;;23.4;48.39844;960.2214;;;;
2019/06/03 08:33:47;;;;;;;6.2;2.9;;;;;;;23.42;48.41113;960.2225;;;;
2019/06/03 08:36:37;;;;;;;3.5;2.4;;;;;;;23.6;47.9209;960.2087;;;;
2019/06/03 08:39:15;;;;;;;5.5;2.6;;;;;;;23.74;47.75879;960.1356;;;;
2019/06/03 08:41:53;;;;;;;4.3;2.2;;;;;;;23.77;48.54492;960.1227;;;;
2019/06/03 08:44:21;;;;;;;3.7;2.2;;;;;;;24.04;46.8291;960.1367;;;;
2019/06/03 08:46:46;;;;;;;3.8;2.4;;;;;;;23.96;46.58398;960.1011;;;;
2019/06/03 08:49:11;;;;;;;4;2.3;;;;;;;23.9;46.36426;960.1394;;;;
2019/06/03 08:51:36;;;;;;;4.5;2.6;;;;;;;23.84;46.23926;960.0839;;;;
2019/06/03 08:54:01;;;;;;;5;2.2;;;;;;;23.89;47.4082;960.0347;;;;
2019/06/03 08:56:26;;;;;;;4.1;2.2;;;;;;;24.1;47.24023;960.0978;;;;
2019/06/03 08:58:51;;;;;;;3.6;2.3;;;;;;;24.22;45.29297;960.0779;;;;
2019/06/03 09:01:20;;;;;;;3;2.2;;;;;;;24.43;45.30273;960.092;;;;
2019/06/03 09:03:45;;;;;;;2.9;2;;;;;;;24.45;45.4707;960.038;;;;
2019/06/03 09:06:12;;;;;;;4.5;2.2;;;;;;;24.53;45.76367;960.0561;;;;
2019/06/03 09:08:37;;;;;;;4.2;2.3;;;;;;;24.6;44.53613;960.0293;;;;
2019/06/03 09:11:02;;;;;;;3.9;2;;;;;;;24.63;43.79004;959.9994;;;;
2019/06/03 09:13:27;;;;;;;4.3;2;;;;;;;24.68;44.16309;960.0059;;;;
2019/06/03 09:15:52;;;;;;;3.6;2.1;;;;;;;24.49;43.68066;959.975;;;;
2019/06/03 09:18:17;;;;;;;2.8;1.8;;;;;;;24.57;45.31738;960.0054;;;;
2019/06/03 09:20:42;;;;;;;2.4;1.7;;;;;;;24.7;42.92969;959.9347;;;;
2019/06/03 09:23:07;;;;;;;4.1;2.1;;;;;;;24.99;41.35156;959.9044;;;;
2019/06/03 09:25:32;;;;;;;3.9;1.7;;;;;;;25.02;40.80664;959.8889;;;;
2019/06/03 09:27:58;;;;;;;5.1;2.1;;;;;;;25.12;41.62598;959.8569;;;;
2019/06/03 09:30:23;;;;;;;3.6;2.1;;;;;;;25.26;39.81641;959.8929;;;;
2019/06/03 09:32:48;;;;;;;2.2;1.7;;;;;;;25.32;39.59668;959.8656;;;;
2019/06/03 09:35:14;;;;;;;4.3;1.8;;;;;;;25.26;41.54199;959.8879;;;;
2019/06/03 09:37:45;;;;;;;2.9;1.9;;;;;;;25.37;39.61328;959.8694;;;;
2019/06/03 09:40:10;;;;;;;2.4;1.9;;;;;;;25.36;40.19531;959.8353;;;;
2019/06/03 09:42:35;;;;;;;3.5;2;;;;;;;25.45;39.7627;959.8336;;;;
2019/06/03 09:45:01;;;;;;;4.5;2;;;;;;;25.44;39.27441;959.8214;;;;
2019/06/03 09:47:26;;;;;;;3.4;2;;;;;;;25.57;39.10742;959.817;;;;
2019/06/03 09:49:51;;;;;;;2.7;2;;;;;;;25.93;38.875;959.8566;;;;
2019/06/03 09:52:16;;;;;;;2.5;1.7;;;;;;;25.88;37.67969;959.8045;;;;
2019/06/03 09:54:41;;;;;;;5.1;2;;;;;;;25.91;37.77832;959.803;;;;
2019/06/03 09:57:06;;;;;;;3.7;1.7;;;;;;;25.88;38.74023;959.7861;;;;
2019/06/03 09:59:34;;;;;;;7.8;2.2;;;;;;;25.77;37.91992;959.772;;;;
2019/06/03 10:01:59;;;;;;;2.4;1.7;;;;;;;25.69;39.33203;959.7372;;;;
2019/06/03 10:04:25;;;;;;;5.5;2.2;;;;;;;25.71;39.10742;959.7766;;;;
2019/06/03 10:06:50;;;;;;;3.8;2;;;;;;;25.71;39.83398;959.7798;;;;
2019/06/03 10:09:15;;;;;;;4.5;2.2;;;;;;;25.91;40.19629;959.7639;;;;
2019/06/03 10:11:40;;;;;;;3.9;2;;;;;;;26.25;38.56934;959.7723;;;;
2019/06/03 10:14:12;;;;;;;5.6;2.2;;;;;;;26.16;40.67285;959.6805;;;;
2019/06/03 10:16:50;;;;;;;4.3;2.3;;;;;;;26.38;39.8457;959.7047;;;;
2019/06/03 10:19:28;;;;;;;4.9;2.4;;;;;;;26.3;40.48242;959.7184;;;;
2019/06/03 10:21:53;;;;;;;2.4;1.6;;;;;;;26.29;34.49414;959.6967;;;;
2019/06/03 10:24:18;;;;;;;2;1.3;;;;;;;26.35;35.17871;959.6756;;;;
2019/06/03 10:26:46;;;;;;;2.1;1.4;;;;;;;26.09;34.33594;959.6487;;;;
2019/06/03 10:29:11;;;;;;;2.4;1.2;;;;;;;26.24;34.28809;959.6864;;;;
2019/06/03 10:31:38;;;;;;;2;1.2;;;;;;;26.67;32.21875;959.7141;;;;
2019/06/03 10:34:03;;;;;;;4.2;1.5;;;;;;;26.63;33.20703;959.6735;;;;
2019/06/03 10:36:29;;;;;;;1.4;1.2;;;;;;;26.74;34.26563;959.598;;;;
2019/06/03 10:38:54;;;;;;;3.4;1.5;;;;;;;26.7;34.59668;959.5859;;;;
2019/06/03 10:41:19;;;;;;;2.8;1.5;;;;;;;27;34.64453;959.6053;;;;
2019/06/03 10:43:45;;;;;;;4.1;1.5;;;;;;;26.63;35.64258;959.5996;;;;
2019/06/03 10:46:10;;;;;;;3.3;1.6;;;;;;;26.69;35.51563;959.5684;;;;
2019/06/03 10:48:35;;;;;;;2.1;1.5;;;;;;;26.48;34.40137;959.5556;;;;
2019/06/03 10:51:00;;;;;;;2;1.5;;;;;;;26.58;34.99316;959.5408;;;;
2019/06/03 10:53:25;;;;;;;2.3;1.6;;;;;;;26.73;34.81445;959.4905;;;;
2019/06/03 10:55:51;;;;;;;3.5;1.9;;;;;;;26.77;35.31836;959.5353;;;;
2019/06/03 10:58:19;;;;;;;4.5;2;;;;;;;26.92;38.55664;959.4963;;;;
2019/06/03 11:00:44;;;;;;;4.8;1.8;;;;;;;26.77;38.45898;959.5233;;;;
2019/06/03 11:03:09;;;;;;;3.5;1.8;;;;;;;26.91;37.34863;959.468;;;;
2019/06/03 11:05:34;;;;;;;3.1;1.8;;;;;;;26.93;38.06738;959.412;;;;
2019/06/03 11:07:59;;;;;;;2.9;1.8;;;;;;;27.2;37.28906;959.4249;;;;
2019/06/03 11:10:24;;;;;;;3;1.7;;;;;;;27.23;36.8252;959.3871;;;;
2019/06/03 11:12:52;;;;;;;2.4;1.7;;;;;;;27.34;36.52344;959.3599;;;;
2019/06/03 11:15:17;;;;;;;1.7;1.4;;;;;;;27.34;35.0293;959.3153;;;;
2019/06/03 11:17:42;;;;;;;2.9;1.6;;;;;;;27.51;33.30762;959.3518;;;;
2019/06/03 11:20:07;;;;;;;2.1;1.4;;;;;;;27.71;34.13672;959.3707;;;;
2019/06/03 11:22:34;;;;;;;1.8;1.6;;;;;;;27.78;32.98145;959.295;;;;
2019/06/03 11:24:59;;;;;;;2.4;1.7;;;;;;;27.86;34.32715;959.3188;;;;
2019/06/03 11:27:28;;;;;;;2.4;1.5;;;;;;;27.74;34.41406;959.3129;;;;
2019/06/03 11:29:53;;;;;;;3.1;1.5;;;;;;;27.49;34.33496;959.2489;;;;
2019/06/03 11:32:20;;;;;;;3;1.6;;;;;;;27.73;34.70117;959.2512;;;;
2019/06/03 11:34:45;;;;;;;3.2;1.7;;;;;;;27.86;33.2627;959.2686;;;;
2019/06/03 11:37:10;;;;;;;2.3;1.3;;;;;;;27.98;33.72559;959.272;;;;
2019/06/03 11:39:37;;;;;;;3.6;1.5;;;;;;;28.19;33.19141;959.2444;;;;
2019/06/03 11:42:02;;;;;;;2.9;1.8;;;;;;;28.2;33.03613;959.2162;;;;
2019/06/03 11:44:28;;;;;;;2.2;1.6;;;;;;;28.26;34.11816;959.2408;;;;
2019/06/03 11:46:53;;;;;;;2.7;1.6;;;;;;;28.07;32.10449;959.2245;;;;
2019/06/03 11:49:18;;;;;;;3.3;1.7;;;;;;;28.15;31.92969;959.1785;;;;
2019/06/03 11:51:44;;;;;;;3;1.7;;;;;;;28.23;33.0498;959.1694;;;;
2019/06/03 11:54:09;;;;;;;2.3;1.5;;;;;;;28.3;34.96094;959.139;;;;
2019/06/03 11:56:34;;;;;;;1.8;1.5;;;;;;;28.35;33.8623;959.101;;;;
2019/06/03 11:58:59;;;;;;;3.3;1.6;;;;;;;28.25;35.51953;959.0527;;;;
2019/06/03 12:01:27;;;;;;;2.3;1.4;;;;;;;27.83;32.61426;959.0178;;;;
2019/06/03 12:03:54;;;;;;;2.6;1.7;;;;;;;27.56;32.34375;958.9883;;;;
2019/06/03 12:06:19;;;;;;;3.6;1.7;;;;;;;27.43;32.76367;958.9702;;;;
2019/06/03 12:08:44;;;;;;;3.3;1.6;;;;;;;27.67;32.99805;959.002;;;;
2019/06/03 12:11:15;;;;;;;2.5;1.5;;;;;;;27.76;34.27246;958.9515;;;;
2019/06/03 12:13:43;;;;;;;2.4;1.7;;;;;;;27.68;33.75195;958.9169;;;;
2019/06/03 12:16:08;;;;;;;1.9;1.4;;;;;;;27.61;33.66211;958.887;;;;
2019/06/03 12:18:36;;;;;;;2.6;1.5;;;;;;;27.28;33.31445;958.8387;;;;
2019/06/03 12:21:01;;;;;;;2.3;1.5;;;;;;;27.07;35.15137;958.751;;;;
2019/06/03 12:23:26;;;;;;;2.5;1.3;;;;;;;27.06;33.75195;958.7944;;;;
2019/06/03 12:25:51;;;;;;;2;1.5;;;;;;;26.89;35.30469;958.723;;;;
2019/06/03 12:28:16;;;;;;;2;1.4;;;;;;;26.84;33.73633;958.7477;;;;
2019/06/03 12:30:42;;;;;;;3;1.5;;;;;;;26.55;35.74316;958.6777;;;;
2019/06/03 12:33:07;;;;;;;2;1.6;;;;;;;26.91;35.27051;958.6467;;;;
2019/06/03 12:35:34;;;;;;;3.8;1.6;;;;;;;27.37;34.0752;958.5519;;;;
2019/06/03 12:37:59;;;;;;;3.5;1.6;;;;;;;28.27;34.40723;958.5327;;;;
2019/06/03 12:40:25;;;;;;;2.4;1.7;;;;;;;28.62;32.15527;958.478;;;;
2019/06/03 12:42:50;;;;;;;3.1;1.4;;;;;;;29.08;32.2373;958.4211;;;;
2019/06/03 12:45:15;;;;;;;2;1.4;;;;;;;29.33;31.49805;958.4222;;;;
2019/06/03 12:47:41;;;;;;;3.6;1.4;;;;;;;29.58;30.53027;958.4121;;;;
2019/06/03 12:50:06;;;;;;;1.9;1.4;;;;;;;29.48;30.42676;958.4037;;;;
2019/06/03 12:52:33;;;;;;;2.5;1.6;;;;;;;29.89;34.90332;958.3687;;;;
2019/06/03 12:54:58;;;;;;;2.1;1.5;;;;;;;29.62;30.68945;958.3958;;;;
2019/06/03 12:57:25;;;;;;;2;1.3;;;;;;;30.2;30.67969;958.3656;;;;
2019/06/03 12:59:50;;;;;;;2.4;1.9;;;;;;;29.76;31.13184;958.3108;;;;
2019/06/03 13:02:15;;;;;;;2.4;1.6;;;;;;;29.76;30.31445;958.2661;;;;
2019/06/03 13:04:43;;;;;;;2.9;1.4;;;;;;;30.2;28.95996;958.2198;;;;
2019/06/03 13:07:08;;;;;;;2.9;2;;;;;;;30.06;29.35938;958.2353;;;;
2019/06/03 13:09:33;;;;;;;1.8;1.3;;;;;;;30.08;28.7832;958.2194;;;;
2019/06/03 13:11:58;;;;;;;1.4;1.2;;;;;;;29.26;30.14844;958.2374;;;;
2019/06/03 13:14:23;;;;;;;1.6;1.5;;;;;;;28.78;30.64355;958.1835;;;;
2019/06/03 13:16:48;;;;;;;1.4;1.3;;;;;;;28.38;31.61133;958.2121;;;;
2019/06/03 13:19:20;;;;;;;2.4;1.2;;;;;;;28.91;30.77246;958.1361;;;;
2019/06/03 13:21:45;;;;;;;3.5;1.5;;;;;;;29.08;31.09668;958.1283;;;;
2019/06/03 13:24:11;;;;;;;2.5;1.9;;;;;;;28.66;31.42676;958.0803;;;;
2019/06/03 13:26:36;;;;;;;1.6;1.5;;;;;;;28.44;32.29785;958.1232;;;;
2019/06/03 13:29:02;;;;;;;1.7;1.4;;;;;;;28.13;35.98926;958.1266;;;;
2019/06/03 13:31:27;;;;;;;1.9;1.4;;;;;;;28.31;32.56543;958.0356;;;;
2019/06/03 13:33:54;;;;;;;2.9;1.7;;;;;;;28.82;30.58691;958.0352;;;;
2019/06/03 13:36:19;;;;;;;2.6;1.5;;;;;;;29.2;31.02051;958.0125;;;;
2019/06/03 13:38:47;;;;;;;1.9;1.2;;;;;;;29.83;31.35254;958.0809;;;;
2019/06/03 13:41:12;;;;;;;2.1;1.4;;;;;;;29.96;30.19434;958.063;;;;
2019/06/03 13:43:49;;;;;;;1.6;1.1;;;;;;;29.86;32.06348;958.0128;;;;
2019/06/03 13:46:27;;;;;;;2.6;1.5;;;;;;;30.06;32.4873;957.9413;;;;
2019/06/03 13:48:52;;;;;;;2.8;1.4;;;;;;;30.43;29.69629;957.9511;;;;
2019/06/03 13:51:18;;;;;;;1.5;1.3;;;;;;;30.27;27.94043;957.952;;;;
2019/06/03 13:53:43;;;;;;;2.6;1.5;;;;;;;30.48;28.21973;957.9235;;;;
2019/06/03 13:56:09;;;;;;;1.3;1.2;;;;;;;30.79;27.92578;957.8678;;;;
2019/06/03 13:58:37;;;;;;;2.5;1.6;;;;;;;30.67;26.99023;957.8239;;;;
2019/06/03 14:01:03;;;;;;;2;1.4;;;;;;;31.19;26.69629;957.7728;;;;
2019/06/03 14:03:28;;;;;;;3.5;1.3;;;;;;;30.92;31.46387;957.7538;;;;
2019/06/03 14:05:55;;;;;;;3.6;1.3;;;;;;;31.02;27.02246;957.7969;;;;
2019/06/03 14:08:40;;;;;;;3.3;1.2;;;;;;;30.7;26.89551;957.7644;;;;
2019/06/03 14:11:19;;;;;;;4;1.6;;;;;;;31.03;30.25391;957.7955;;;;
2019/06/03 14:13:48;;;;;;;1.8;1.2;;;;;;;31.11;27.93262;957.775;;;;
2019/06/03 14:16:20;;;;;;;2.9;1.9;;;;;;;31.36;26.89941;957.7941;;;;
2019/06/03 14:18:45;;;;;;;1.7;1.4;;;;;;;31;29.72168;957.8002;;;;
2019/06/03 14:21:10;;;;;;;2.2;1.3;;;;;;;30.97;29.97266;957.7668;;;;
2019/06/03 14:23:38;;;;;;;2;1.3;;;;;;;30.9;28.36523;957.7642;;;;
2019/06/03 14:26:03;;;;;;;2.9;1.4;;;;;;;30.03;28.73242;957.7481;;;;
2019/06/03 14:28:29;;;;;;;2.1;1.3;;;;;;;29.62;31.68555;957.7408;;;;
2019/06/03 14:30:59;;;;;;;3.4;1.4;;;;;;;29.46;31.45898;957.6692;;;;